PWSweather.com
Personal Weather Stations
Station Observations
RIORANCHO
Corrales Heights, Rio Rancho, NM 87124

Corrales HeightsRio Rancho, NM 87124

Lat: 35.241928, Lon: -106.647095

Elevation: 5297

Station Type: Davis Vantage Pro 2 Plus

http://www.weatherriorancho.com

Latest ConditionsUpdated 6:00:01 AM MDT Friday, Jun 23, 2017
Currently Today's Max Today's Min Today's Average
Temperature 67.0°F19.4°C 77.4°F25.2°C 66.5°F19.2°C 71.9°F22.2°C
Dew Point 23.3°F-4.8°C 27.6°F-2.4°C 19.6°F-6.9°C 23.8°F-4.6°C
Winds 1.2 mph W1.9 kmh W 2.3 mph W3.7 kmh W - 0.1 mph 0.2 kmh
Wind Gusts 3.5 mph5.6 kmh 3.5 mph5.6 kmh - -
Humidity 19% 22% 12% 17%
Pressure 30.05 in1017.6 mb 30.05 in1017.6 mb 29.98 in1015.2 mb -
Hour Temp Dew Point Humidity Winds Wind Gusts Pressure Precip Precip Rate Daily Precip Total
06:00 AM 67.0°F19.4°C 23.3°F-4.8°C 19% 1.2 mph W1.9 kmh W 3.5 mph5.6 kmh 30.05 in1017.6 mb - 0.00 in0.0 mm 0.00 in0.0 mm
05:50 AM 66.5°F19.2°C 25.4°F-3.7°C 21% Calm Calm 3.5 mph5.6 kmh 30.05 in1017.6 mb - 0.00 in0.0 mm 0.00 in0.0 mm
05:40 AM 67.9°F19.9°C 25.3°F-3.7°C 20% Calm Calm -- 30.05 in1017.6 mb - 0.00 in0.0 mm 0.00 in0.0 mm
05:30 AM 68.2°F20.1°C 23.0°F-5.0°C 18% Calm Calm -- 30.04 in1017.3 mb - 0.00 in0.0 mm 0.00 in0.0 mm
05:20 AM 68.3°F20.2°C 24.4°F-4.2°C 19% Calm Calm 2.3 mph3.7 kmh 30.03 in1016.9 mb - 0.00 in0.0 mm 0.00 in0.0 mm
05:10 AM 68.3°F20.2°C 23.1°F-4.9°C 18% 1.2 mph W1.9 kmh W 2.3 mph3.7 kmh 30.03 in1016.9 mb - 0.00 in0.0 mm 0.00 in0.0 mm
05:00 AM 67.9°F19.9°C 25.3°F-3.7°C 20% 2.3 mph W3.7 kmh W 3.5 mph5.6 kmh 30.03 in1016.9 mb - 0.00 in0.0 mm 0.00 in0.0 mm
04:50 AM 67.9°F19.9°C 27.6°F-2.4°C 22% Calm Calm 1.2 mph1.9 kmh 30.02 in1016.6 mb - 0.00 in0.0 mm 0.00 in0.0 mm
04:40 AM 68.3°F20.2°C 26.8°F-2.9°C 21% Calm Calm -- 30.02 in1016.6 mb - 0.00 in0.0 mm 0.00 in0.0 mm
04:30 AM 68.6°F20.3°C 27.1°F-2.7°C 21% Calm Calm -- 30.01 in1016.3 mb - 0.00 in0.0 mm 0.00 in0.0 mm
04:20 AM 69.2°F20.7°C 26.4°F-3.1°C 20% Calm Calm -- 30.01 in1016.3 mb - 0.00 in0.0 mm 0.00 in0.0 mm
04:10 AM 69.7°F20.9°C 26.8°F-2.9°C 20% Calm Calm -- 30.01 in1016.3 mb - 0.00 in0.0 mm 0.00 in0.0 mm
04:00 AM 69.9°F21.1°C 27.0°F-2.8°C 20% Calm Calm -- 30.01 in1016.3 mb - 0.00 in0.0 mm 0.00 in0.0 mm
03:50 AM 70.0°F21.1°C 27.0°F-2.8°C 20% Calm Calm -- 30.02 in1016.6 mb - 0.00 in0.0 mm 0.00 in0.0 mm
03:40 AM 69.5°F20.8°C 25.4°F-3.7°C 19% Calm Calm -- 30.02 in1016.6 mb - 0.00 in0.0 mm 0.00 in0.0 mm
03:30 AM 69.7°F20.9°C 25.6°F-3.6°C 19% Calm Calm -- 30.01 in1016.3 mb - 0.00 in0.0 mm 0.00 in0.0 mm
03:20 AM 70.0°F21.1°C 23.1°F-4.9°C 17% Calm Calm -- 30.01 in1016.3 mb - 0.00 in0.0 mm 0.00 in0.0 mm
03:10 AM 70.3°F21.3°C 24.7°F-4.1°C 18% Calm Calm -- 30.00 in1015.9 mb - 0.00 in0.0 mm 0.00 in0.0 mm
03:00 AM 71.0°F21.7°C 24.0°F-4.4°C 17% Calm Calm -- 30.00 in1015.9 mb - 0.00 in0.0 mm 0.00 in0.0 mm
02:50 AM 71.5°F21.9°C 22.9°F-5.1°C 16% Calm Calm -- 29.99 in1015.6 mb - 0.00 in0.0 mm 0.00 in0.0 mm
02:40 AM 72.2°F22.3°C 21.9°F-5.6°C 15% Calm Calm -- 29.99 in1015.6 mb - 0.00 in0.0 mm 0.00 in0.0 mm
02:30 AM 72.8°F22.7°C 22.4°F-5.3°C 15% Calm Calm -- 29.99 in1015.6 mb - 0.00 in0.0 mm 0.00 in0.0 mm
02:20 AM 73.5°F23.1°C 21.3°F-5.9°C 14% Calm Calm -- 29.99 in1015.6 mb - 0.00 in0.0 mm 0.00 in0.0 mm
02:10 AM 74.0°F23.3°C 21.7°F-5.7°C 14% Calm Calm -- 29.99 in1015.6 mb - 0.00 in0.0 mm 0.00 in0.0 mm
02:00 AM 74.5°F23.6°C 20.4°F-6.4°C 13% Calm Calm 1.2 mph1.9 kmh 29.99 in1015.6 mb - 0.00 in0.0 mm 0.00 in0.0 mm
01:50 AM 75.5°F24.2°C 21.2°F-6.0°C 13% Calm Calm -- 29.99 in1015.6 mb - 0.00 in0.0 mm 0.00 in0.0 mm
01:40 AM 75.9°F24.4°C 19.6°F-6.9°C 12% Calm Calm 3.5 mph5.6 kmh 29.98 in1015.2 mb - 0.00 in0.0 mm 0.00 in0.0 mm
01:30 AM 75.8°F24.3°C 21.4°F-5.9°C 13% Calm Calm 2.3 mph3.7 kmh 29.98 in1015.2 mb - 0.00 in0.0 mm 0.00 in0.0 mm
01:20 AM 76.0°F24.4°C 21.6°F-5.8°C 13% Calm Calm 1.2 mph1.9 kmh 29.98 in1015.2 mb - 0.00 in0.0 mm 0.00 in0.0 mm
01:10 AM 76.0°F24.4°C 21.6°F-5.8°C 13% Calm Calm 2.3 mph3.7 kmh 29.98 in1015.2 mb - 0.00 in0.0 mm 0.00 in0.0 mm
01:00 AM 75.7°F24.3°C 21.3°F-5.9°C 13% Calm Calm 1.2 mph1.9 kmh 29.98 in1015.2 mb - 0.00 in0.0 mm 0.00 in0.0 mm
12:50 AM 75.7°F24.3°C 23.1°F-4.9°C 14% Calm Calm 2.3 mph3.7 kmh 29.99 in1015.6 mb - 0.00 in0.0 mm 0.00 in0.0 mm
12:40 AM 75.7°F24.3°C 23.1°F-4.9°C 14% Calm Calm -- 29.99 in1015.6 mb - 0.00 in0.0 mm 0.00 in0.0 mm
12:30 AM 76.0°F24.4°C 23.3°F-4.8°C 14% Calm Calm -- 29.98 in1015.2 mb - 0.00 in0.0 mm 0.00 in0.0 mm
12:20 AM 76.4°F24.7°C 23.6°F-4.7°C 14% Calm Calm -- 29.98 in1015.2 mb - 0.00 in0.0 mm 0.00 in0.0 mm
12:10 AM 76.9°F24.9°C 24.0°F-4.4°C 14% Calm Calm -- 29.98 in1015.2 mb - 0.00 in0.0 mm 0.00 in0.0 mm
12:00 AM 77.4°F25.2°C 24.4°F-4.2°C 14% Calm Calm -- 29.98 in1015.2 mb - 0.00 in0.0 mm 0.00 in0.0 mm